Time;durP1;ratioP1;P1;durP2;ratioP2;P2;SDS_P1;SDS_P2;PMS_P1;PMS_P2;Temp;Humidity;BMP_temperature;BMP_pressure;BME280_temperature;BME280_humidity;BME280_pressure;Samples;Min_cycle;Max_cycle;Signal;HPM_P1;HPM_P2
2022/03/11 00:00:53;;;;;;;7.95;5.75;;;16.50;52.70;;;;;;4063752;29;20074;-65
2022/03/11 00:03:16;;;;;;;8.13;6.00;;;16.40;52.60;;;;;;4064140;29;20067;-63
2022/03/11 00:05:40;;;;;;;8.02;5.55;;;16.40;52.60;;;;;;4064243;29;20484;-64
2022/03/11 00:08:01;;;;;;;8.52;5.88;;;16.40;52.80;;;;;;4057471;29;20056;-63
2022/03/11 00:10:24;;;;;;;9.50;6.20;;;16.40;52.60;;;;;;4063569;29;20060;-63
2022/03/11 00:12:46;;;;;;;7.57;5.60;;;16.40;52.30;;;;;;4062807;29;20082;-61
2022/03/11 00:15:11;;;;;;;8.23;5.80;;;16.40;52.50;;;;;;4064098;29;20091;-65
2022/03/11 00:17:35;;;;;;;8.70;5.97;;;16.40;53.00;;;;;;4064062;29;20040;-63
2022/03/11 00:19:57;;;;;;;7.35;5.53;;;16.30;53.20;;;;;;4063133;29;20633;-63
2022/03/11 00:22:21;;;;;;;8.48;6.45;;;16.30;53.00;;;;;;4055835;29;20055;-64
2022/03/11 00:24:43;;;;;;;10.25;6.22;;;16.30;53.20;;;;;;4048654;29;20057;-63
2022/03/11 00:27:05;;;;;;;8.82;6.20;;;16.30;53.20;;;;;;4056919;29;20123;-63
2022/03/11 00:29:28;;;;;;;7.63;6.00;;;16.30;53.40;;;;;;4063890;29;20048;-63
2022/03/11 00:31:50;;;;;;;7.10;6.28;;;16.30;53.30;;;;;;4063984;29;20748;-64
2022/03/11 00:34:12;;;;;;;9.70;6.70;;;16.30;53.10;;;;;;4063266;29;20048;-64
2022/03/11 00:36:34;;;;;;;11.75;6.72;;;16.30;53.20;;;;;;4048654;29;20135;-64
2022/03/11 00:38:57;;;;;;;9.73;6.75;;;16.20;53.20;;;;;;4053682;29;20455;-63
2022/03/11 00:41:19;;;;;;;8.63;6.80;;;16.20;53.20;;;;;;4063634;29;20079;-63
2022/03/11 00:43:41;;;;;;;7.90;6.60;;;16.20;52.80;;;;;;4062967;29;20058;-63
2022/03/11 00:46:04;;;;;;;9.02;6.88;;;16.20;53.00;;;;;;4055495;29;20510;-64
2022/03/11 00:48:27;;;;;;;8.95;6.53;;;16.20;53.00;;;;;;4055194;29;20063;-63
2022/03/11 00:50:49;;;;;;;8.40;6.85;;;16.20;53.00;;;;;;4043570;29;20049;-65
2022/03/11 00:53:12;;;;;;;8.80;6.53;;;16.20;52.90;;;;;;4059140;29;20052;-63
2022/03/11 00:55:35;;;;;;;7.15;6.38;;;16.10;53.00;;;;;;4047763;29;20511;-63
2022/03/11 00:57:57;;;;;;;12.45;7.38;;;16.10;53.10;;;;;;4047794;29;20410;-63
2022/03/11 01:00:20;;;;;;;8.82;7.25;;;16.10;53.20;;;;;;4057078;29;20056;-63
2022/03/11 01:02:42;;;;;;;12.43;7.70;;;16.10;53.40;;;;;;4063371;29;20055;-63
2022/03/11 01:05:05;;;;;;;9.70;7.20;;;16.10;53.70;;;;;;4063069;29;20410;-63
2022/03/11 01:07:27;;;;;;;12.45;8.05;;;16.00;53.80;;;;;;4055099;29;20075;-63
2022/03/11 01:09:49;;;;;;;9.90;7.35;;;16.00;53.60;;;;;;4047913;29;20060;-63
2022/03/11 01:12:13;;;;;;;10.70;8.48;;;16.00;53.40;;;;;;4047710;29;20516;-63
2022/03/11 01:14:35;;;;;;;11.18;8.32;;;16.00;53.00;;;;;;4060312;29;20048;-63
2022/03/11 01:16:57;;;;;;;14.02;7.82;;;16.00;53.20;;;;;;4061784;29;20383;-65
2022/03/11 01:19:19;;;;;;;9.32;8.13;;;16.00;53.40;;;;;;4059282;29;20083;-64
2022/03/11 01:21:42;;;;;;;12.80;9.13;;;16.00;53.50;;;;;;4046891;29;20056;-64
2022/03/11 01:24:04;;;;;;;11.65;9.00;;;16.00;53.60;;;;;;4046980;29;20099;-64
2022/03/11 01:26:26;;;;;;;9.98;8.13;;;16.00;53.70;;;;;;4047771;29;20494;-62
2022/03/11 01:28:50;;;;;;;12.10;7.97;;;15.90;53.70;;;;;;4047507;29;20084;-63
2022/03/11 01:31:13;;;;;;;12.15;8.20;;;15.90;53.90;;;;;;4047454;29;20070;-63
2022/03/11 01:33:35;;;;;;;13.63;9.38;;;15.90;53.80;;;;;;4047566;29;20143;-63
2022/03/11 01:35:58;;;;;;;14.32;9.95;;;15.90;53.90;;;;;;4047740;29;20057;-63
2022/03/11 01:38:20;;;;;;;13.07;8.95;;;15.90;53.90;;;;;;4048030;29;20151;-63
2022/03/11 01:40:42;;;;;;;12.88;9.77;;;15.90;53.90;;;;;;4049691;29;20525;-63
2022/03/11 01:43:05;;;;;;;11.55;8.95;;;15.90;54.00;;;;;;4062732;29;20048;-63
2022/03/11 01:45:31;;;;;;;12.80;9.82;;;15.90;54.20;;;;;;4062755;29;20059;-62
2022/03/11 01:47:53;;;;;;;14.18;10.05;;;15.90;54.10;;;;;;4062523;29;20055;-62
2022/03/11 01:50:15;;;;;;;15.25;10.27;;;15.90;53.70;;;;;;4062990;29;20395;-62
2022/03/11 01:52:38;;;;;;;18.20;9.80;;;15.90;53.90;;;;;;4058846;29;20088;-63
2022/03/11 01:55:00;;;;;;;14.95;10.32;;;15.80;54.00;;;;;;4055521;29;20052;-63
2022/03/11 01:57:23;;;;;;;16.13;10.68;;;15.80;54.30;;;;;;4063060;29;20105;-63
2022/03/11 01:59:48;;;;;;;14.25;10.80;;;15.80;54.10;;;;;;4062309;29;20425;-63
2022/03/11 02:02:11;;;;;;;15.30;11.05;;;15.80;54.90;;;;;;4062945;29;20082;-63
2022/03/11 02:04:34;;;;;;;16.15;11.50;;;15.90;55.30;;;;;;4062580;29;20135;-63
2022/03/11 02:06:56;;;;;;;16.90;11.80;;;15.90;55.20;;;;;;4052945;29;20447;-62
2022/03/11 02:09:18;;;;;;;15.07;11.35;;;16.00;55.10;;;;;;4062673;29;20058;-63
2022/03/11 02:11:40;;;;;;;16.98;11.75;;;16.00;54.90;;;;;;4062905;29;20396;-63
2022/03/11 02:14:02;;;;;;;13.90;10.60;;;16.00;54.90;;;;;;4062617;29;20063;-63
2022/03/11 02:16:27;;;;;;;15.57;11.07;;;16.10;54.80;;;;;;4057569;29;20443;-63
2022/03/11 02:18:51;;;;;;;16.55;11.77;;;16.10;54.80;;;;;;4046821;29;20072;-63
2022/03/11 02:21:14;;;;;;;15.38;11.63;;;16.10;54.60;;;;;;4053579;29;20515;-63
2022/03/11 02:23:44;;;;;;;18.27;12.57;;;16.10;54.10;;;;;;4062909;29;20499;-63
2022/03/11 02:26:09;;;;;;;16.40;11.68;;;16.10;54.00;;;;;;4072475;29;20083;-63
2022/03/11 02:28:34;;;;;;;19.92;12.85;;;16.00;54.00;;;;;;4047575;29;20502;-63
2022/03/11 02:30:56;;;;;;;18.60;12.55;;;16.00;53.90;;;;;;4047335;29;20068;-63
2022/03/11 02:33:22;;;;;;;17.42;12.68;;;16.00;53.10;;;;;;4047088;29;20104;-63
2022/03/11 02:35:44;;;;;;;16.05;13.00;;;15.90;53.10;;;;;;4046995;29;20056;-62
2022/03/11 02:38:06;;;;;;;20.05;12.93;;;15.90;53.10;;;;;;4047328;29;20468;-62
2022/03/11 02:40:32;;;;;;;18.17;13.38;;;15.90;53.40;;;;;;4046864;29;20072;-63
2022/03/11 02:42:54;;;;;;;19.77;13.30;;;15.90;53.40;;;;;;4059536;29;20135;-63
2022/03/11 02:45:17;;;;;;;18.27;13.20;;;15.80;53.50;;;;;;4065254;29;20082;-63
2022/03/11 02:47:39;;;;;;;18.02;13.93;;;15.80;53.10;;;;;;4064771;29;20059;-63
2022/03/11 02:50:01;;;;;;;17.83;12.88;;;15.80;53.40;;;;;;4065001;29;20155;-63
2022/03/11 02:52:23;;;;;;;16.60;12.63;;;15.80;54.00;;;;;;4065381;29;20134;-63
2022/03/11 02:54:45;;;;;;;19.23;13.02;;;15.80;54.40;;;;;;4050668;29;20143;-63
2022/03/11 02:57:08;;;;;;;18.00;13.35;;;15.80;54.70;;;;;;4050263;29;20542;-63
2022/03/11 02:59:31;;;;;;;21.02;13.85;;;15.80;55.00;;;;;;4049895;29;20064;-63
2022/03/11 03:01:53;;;;;;;22.73;13.77;;;15.90;55.10;;;;;;4057480;29;20064;-63
2022/03/11 03:04:16;;;;;;;19.05;14.05;;;15.90;55.30;;;;;;4061736;29;20709;-63
2022/03/11 03:06:38;;;;;;;17.65;13.23;;;15.90;55.20;;;;;;4065578;29;20056;-62
2022/03/11 03:09:00;;;;;;;19.35;13.50;;;16.00;55.20;;;;;;4065205;29;20054;-62
2022/03/11 03:11:22;;;;;;;20.80;13.80;;;16.00;54.80;;;;;;4065066;29;20100;-62
2022/03/11 03:13:45;;;;;;;18.83;13.57;;;16.00;54.70;;;;;;4064754;29;20044;-62
2022/03/11 03:16:07;;;;;;;21.02;14.23;;;16.00;54.80;;;;;;4056932;29;20475;-63
2022/03/11 03:18:30;;;;;;;20.88;14.43;;;16.00;54.60;;;;;;4060909;29;20056;-62
2022/03/11 03:20:52;;;;;;;21.80;14.30;;;16.00;54.80;;;;;;4065126;29;20054;-63
2022/03/11 03:23:14;;;;;;;20.45;13.52;;;16.00;54.90;;;;;;4065023;29;20048;-62
2022/03/11 03:25:36;;;;;;;19.38;14.65;;;16.00;54.80;;;;;;4064673;29;20051;-62
2022/03/11 03:28:00;;;;;;;19.40;14.70;;;16.00;54.80;;;;;;4064695;29;20145;-63
2022/03/11 03:30:24;;;;;;;19.85;14.68;;;16.00;54.90;;;;;;4043913;29;20048;-62
2022/03/11 03:32:46;;;;;;;20.38;14.00;;;16.00;54.80;;;;;;4050530;29;20079;-62
2022/03/11 03:35:09;;;;;;;20.15;14.68;;;16.00;54.60;;;;;;4064982;29;20048;-62
2022/03/11 03:37:31;;;;;;;21.00;14.48;;;16.00;54.80;;;;;;4064816;29;20137;-62
2022/03/11 03:39:53;;;;;;;19.30;13.82;;;16.00;55.10;;;;;;4050240;29;20115;-62
2022/03/11 03:42:15;;;;;;;20.65;14.63;;;16.10;55.30;;;;;;4064726;29;20091;-62
2022/03/11 03:44:37;;;;;;;20.02;14.13;;;16.10;55.30;;;;;;4049416;29;20056;-62
2022/03/11 03:47:02;;;;;;;17.50;12.90;;;16.20;55.00;;;;;;4049504;29;20448;-62
2022/03/11 03:49:25;;;;;;;20.55;14.68;;;16.20;54.90;;;;;;4052469;29;20404;-62
2022/03/11 03:51:47;;;;;;;18.83;13.85;;;16.20;54.60;;;;;;4049006;29;20060;-62
2022/03/11 03:54:10;;;;;;;21.10;13.82;;;16.20;54.60;;;;;;4048600;29;20476;-62
2022/03/11 03:56:33;;;;;;;20.35;15.10;;;16.20;54.70;;;;;;4048926;29;20051;-62
2022/03/11 03:58:55;;;;;;;22.80;14.73;;;16.20;54.70;;;;;;4049176;29;20503;-63
2022/03/11 04:01:20;;;;;;;18.92;14.32;;;16.10;54.70;;;;;;4049636;29;20060;-62
2022/03/11 04:03:43;;;;;;;20.35;14.65;;;16.10;54.70;;;;;;4053468;29;20151;-63
2022/03/11 04:06:05;;;;;;;21.58;14.23;;;16.10;54.80;;;;;;4063050;29;21054;-63
2022/03/11 04:08:28;;;;;;;26.02;14.70;;;16.10;54.80;;;;;;4053463;29;20123;-66
2022/03/11 04:10:50;;;;;;;19.88;15.23;;;16.10;54.70;;;;;;4050341;29;20140;-66
2022/03/11 04:13:12;;;;;;;19.63;14.88;;;16.10;54.80;;;;;;4061403;29;20554;-67
2022/03/11 04:15:35;;;;;;;19.63;13.85;;;16.10;54.90;;;;;;4063622;29;20478;-67
2022/03/11 04:17:57;;;;;;;18.50;14.15;;;16.00;54.80;;;;;;4063886;29;20067;-66
2022/03/11 04:20:20;;;;;;;20.85;14.48;;;16.00;55.00;;;;;;4049071;29;20081;-66
2022/03/11 04:22:43;;;;;;;17.70;14.02;;;16.10;55.20;;;;;;4055959;29;20076;-65
2022/03/11 04:25:06;;;;;;;19.55;14.10;;;16.10;55.10;;;;;;4048342;29;20052;-67
2022/03/11 04:27:28;;;;;;;19.70;13.65;;;16.10;55.10;;;;;;4048239;29;20056;-66
2022/03/11 04:29:51;;;;;;;17.33;14.38;;;16.20;55.10;;;;;;4047505;29;20080;-66
2022/03/11 04:32:13;;;;;;;19.77;14.20;;;16.20;55.10;;;;;;4048266;29;20052;-66
2022/03/11 04:34:38;;;;;;;18.85;13.45;;;16.30;55.20;;;;;;4048331;29;20053;-68
2022/03/11 04:37:01;;;;;;;15.77;13.10;;;16.40;54.80;;;;;;4048950;29;20100;-66
2022/03/11 04:39:26;;;;;;;20.45;15.13;;;16.50;54.60;;;;;;4047957;29;20495;-66
2022/03/11 04:41:53;;;;;;;18.77;14.43;;;16.60;54.40;;;;;;4048270;29;20459;-66
2022/03/11 04:44:15;;;;;;;19.08;14.18;;;16.60;54.10;;;;;;4057099;29;20463;-66
2022/03/11 04:46:37;;;;;;;17.60;13.38;;;16.60;54.00;;;;;;4063211;29;20058;-66
2022/03/11 04:48:59;;;;;;;21.58;14.82;;;16.60;54.10;;;;;;4061671;29;20410;-66
2022/03/11 04:51:22;;;;;;;18.48;13.85;;;16.60;54.00;;;;;;4047882;29;20056;-66
2022/03/11 04:53:45;;;;;;;18.33;13.63;;;16.60;53.90;;;;;;4062534;29;20491;-66
2022/03/11 04:56:07;;;;;;;20.17;14.20;;;16.60;54.00;;;;;;4059751;29;20131;-68
2022/03/11 04:58:29;;;;;;;20.35;14.55;;;16.60;53.90;;;;;;4062943;29;20112;-67
2022/03/11 05:00:53;;;;;;;19.52;14.90;;;16.50;54.10;;;;;;4062756;29;20214;-66
2022/03/11 05:03:15;;;;;;;18.90;12.90;;;16.50;54.80;;;;;;4059389;29;20108;-67
2022/03/11 05:05:39;;;;;;;19.67;14.00;;;16.40;54.10;;;;;;4057826;29;20056;-68
2022/03/11 05:08:01;;;;;;;19.52;14.27;;;16.40;54.20;;;;;;4061347;29;20107;-66
2022/03/11 05:10:24;;;;;;;18.73;14.48;;;16.30;54.10;;;;;;4062833;29;20471;-66
2022/03/11 05:12:47;;;;;;;19.88;14.75;;;16.30;54.40;;;;;;4063241;29;20051;-66
2022/03/11 05:15:11;;;;;;;18.27;14.25;;;16.20;54.40;;;;;;4057380;29;20044;-68
2022/03/11 05:17:34;;;;;;;19.02;14.13;;;16.20;54.50;;;;;;4047713;29;20053;-66
2022/03/11 05:19:56;;;;;;;22.50;14.43;;;16.20;54.80;;;;;;4042170;29;20565;-69
2022/03/11 05:22:20;;;;;;;21.88;15.65;;;16.20;54.80;;;;;;4075749;29;20055;-67
2022/03/11 05:24:42;;;;;;;19.38;14.43;;;16.20;55.10;;;;;;4077649;29;20115;-67
2022/03/11 05:27:06;;;;;;;20.00;14.77;;;16.30;54.90;;;;;;4047732;29;20499;-66
2022/03/11 05:29:28;;;;;;;18.77;14.50;;;16.40;54.60;;;;;;4055254;29;20076;-65
2022/03/11 05:31:50;;;;;;;22.58;15.15;;;16.50;54.40;;;;;;4047886;29;20095;-66
2022/03/11 05:34:12;;;;;;;18.67;14.65;;;16.50;54.20;;;;;;4062634;29;20072;-66
2022/03/11 05:36:35;;;;;;;22.92;14.98;;;16.50;54.10;;;;;;4062988;29;20158;-65
2022/03/11 05:38:58;;;;;;;16.33;13.75;;;16.50;53.90;;;;;;4063100;29;20139;-66
2022/03/11 05:41:20;;;;;;;18.70;13.15;;;16.50;53.90;;;;;;4062882;29;20052;-66
2022/03/11 05:43:43;;;;;;;21.67;14.63;;;16.50;54.00;;;;;;4063099;29;20076;-66
2022/03/11 05:46:06;;;;;;;19.55;13.68;;;16.50;53.90;;;;;;4047954;29;20049;-66
2022/03/11 05:48:28;;;;;;;18.98;13.98;;;16.40;54.00;;;;;;4047500;29;20467;-66
2022/03/11 05:50:50;;;;;;;19.27;13.32;;;16.40;54.10;;;;;;4049544;29;20115;-66
2022/03/11 05:53:12;;;;;;;20.73;15.10;;;16.40;54.10;;;;;;4063155;29;20470;-66
2022/03/11 05:55:35;;;;;;;17.92;13.82;;;16.30;54.00;;;;;;4063142;29;20055;-66
2022/03/11 05:57:57;;;;;;;17.73;13.38;;;16.30;54.20;;;;;;4063212;29;20056;-67
2022/03/11 06:00:21;;;;;;;18.67;14.77;;;16.30;54.40;;;;;;4051462;29;20053;-67
2022/03/11 06:02:43;;;;;;;19.35;13.90;;;16.30;54.30;;;;;;4046832;29;20052;-66
2022/03/11 06:05:08;;;;;;;18.65;14.30;;;16.30;54.20;;;;;;4047759;29;20083;-66
2022/03/11 06:07:30;;;;;;;19.35;14.32;;;16.30;54.20;;;;;;4049137;29;20491;-66
2022/03/11 06:09:52;;;;;;;23.63;15.30;;;16.30;54.20;;;;;;4062332;29;20166;-66
2022/03/11 06:12:15;;;;;;;19.95;14.65;;;16.30;54.20;;;;;;4062384;29;20052;-66
2022/03/11 06:14:38;;;;;;;21.00;15.40;;;16.30;54.30;;;;;;4061084;29;20485;-66
2022/03/11 06:17:01;;;;;;;19.40;13.98;;;16.30;54.50;;;;;;4049000;29;20073;-66
2022/03/11 06:19:24;;;;;;;20.48;14.52;;;16.40;54.40;;;;;;4050352;29;20048;-66
2022/03/11 06:21:46;;;;;;;21.70;14.95;;;16.40;54.10;;;;;;4060577;29;20055;-66
2022/03/11 06:24:11;;;;;;;19.35;14.93;;;16.50;54.10;;;;;;4065195;29;20055;-66
2022/03/11 06:26:35;;;;;;;19.08;14.93;;;16.50;53.90;;;;;;4059753;29;20370;-66
2022/03/11 06:28:57;;;;;;;22.75;15.25;;;16.50;53.70;;;;;;4059932;29;20060;-65
2022/03/11 06:31:19;;;;;;;18.10;15.23;;;16.50;53.80;;;;;;4051227;29;20107;-65
2022/03/11 06:33:43;;;;;;;17.75;14.13;;;16.40;53.70;;;;;;4065392;29;20130;-65
2022/03/11 06:36:06;;;;;;;20.40;14.93;;;16.50;53.90;;;;;;4065361;29;20064;-66
2022/03/11 06:38:28;;;;;;;20.55;14.10;;;16.40;53.60;;;;;;4065830;29;20066;-66
2022/03/11 06:40:54;;;;;;;19.35;14.13;;;16.40;53.50;;;;;;4065435;29;20048;-65
2022/03/11 06:43:16;;;;;;;18.65;14.23;;;16.30;53.40;;;;;;4064869;29;20044;-65
2022/03/11 06:45:39;;;;;;;17.42;14.30;;;16.30;53.40;;;;;;4065449;29;20465;-66
2022/03/11 06:48:01;;;;;;;19.42;14.27;;;16.30;53.40;;;;;;4046366;29;21085;-67
2022/03/11 06:50:25;;;;;;;20.60;14.65;;;16.20;53.70;;;;;;4065399;29;20091;-67
2022/03/11 06:52:47;;;;;;;17.42;13.63;;;16.20;53.90;;;;;;4063944;29;20135;-67
2022/03/11 06:55:11;;;;;;;19.58;14.30;;;16.20;54.30;;;;;;4054325;29;20056;-67
2022/03/11 06:57:35;;;;;;;17.63;13.60;;;16.20;54.20;;;;;;4058021;29;20732;-67
2022/03/11 06:59:57;;;;;;;23.52;13.23;;;16.20;54.10;;;;;;4051919;29;20060;-67
2022/03/11 07:02:20;;;;;;;23.13;14.25;;;16.10;54.20;;;;;;4079738;29;20458;-67
2022/03/11 07:04:47;;;;;;;18.35;13.80;;;16.20;54.30;;;;;;4056115;29;20071;-66
2022/03/11 07:07:11;;;;;;;21.77;14.10;;;16.20;54.00;;;;;;4018240;29;20535;-66
2022/03/11 07:09:33;;;;;;;20.35;14.32;;;16.30;54.20;;;;;;4019072;29;20077;-66
2022/03/11 07:11:57;;;;;;;18.52;13.73;;;16.30;54.00;;;;;;4022430;29;20057;-66
2022/03/11 07:14:19;;;;;;;18.08;14.65;;;16.40;53.70;;;;;;4028811;29;20056;-66
2022/03/11 07:16:42;;;;;;;21.92;14.60;;;16.40;53.70;;;;;;4034451;29;20048;-66
2022/03/11 07:19:04;;;;;;;22.02;14.75;;;16.40;53.80;;;;;;4042227;29;20143;-66
2022/03/11 07:21:28;;;;;;;19.23;13.85;;;16.40;52.90;;;;;;4035059;29;20472;-66
2022/03/11 07:23:54;;;;;;;19.85;14.27;;;16.40;53.00;;;;;;4037555;29;20045;-67
2022/03/11 07:26:16;;;;;;;20.13;14.20;;;16.40;52.80;;;;;;4033748;29;20495;-66
2022/03/11 07:28:38;;;;;;;22.80;15.00;;;16.40;53.10;;;;;;4018102;29;20062;-66
2022/03/11 07:31:01;;;;;;;20.25;15.40;;;16.30;53.40;;;;;;4025865;29;20061;-64
2022/03/11 07:33:24;;;;;;;20.67;14.75;;;16.30;53.70;;;;;;4049443;29;20056;-65
2022/03/11 07:35:46;;;;;;;20.65;15.27;;;16.30;53.50;;;;;;4049582;29;20049;-65
2022/03/11 07:38:08;;;;;;;19.20;14.75;;;16.30;53.70;;;;;;4049784;29;20072;-65
2022/03/11 07:40:32;;;;;;;19.98;14.13;;;16.30;53.80;;;;;;4046044;29;20483;-65
2022/03/11 07:42:54;;;;;;;20.83;13.45;;;16.20;53.50;;;;;;4018807;29;20124;-64
2022/03/11 07:45:16;;;;;;;20.42;14.15;;;16.20;53.00;;;;;;4030853;29;20086;-65
2022/03/11 07:47:40;;;;;;;19.98;14.90;;;16.20;53.20;;;;;;4042613;29;20048;-65
2022/03/11 07:50:03;;;;;;;17.23;14.07;;;16.20;53.50;;;;;;4031533;29;20524;-65
2022/03/11 07:52:25;;;;;;;19.30;14.32;;;16.10;53.40;;;;;;4031908;29;20053;-65
2022/03/11 07:54:47;;;;;;;18.05;13.52;;;16.10;52.50;;;;;;4030400;29;20064;-65
2022/03/11 07:57:11;;;;;;;17.33;14.52;;;16.20;53.20;;;;;;4030763;29;20445;-65
2022/03/11 07:59:34;;;;;;;20.48;15.52;;;16.30;52.50;;;;;;4030678;29;20098;-66
2022/03/11 08:01:56;;;;;;;22.38;14.82;;;16.40;53.30;;;;;;4029301;29;20049;-65
2022/03/11 08:04:19;;;;;;;23.05;14.57;;;16.50;51.70;;;;;;4029747;29;20056;-65
2022/03/11 08:06:41;;;;;;;21.00;14.35;;;16.60;51.50;;;;;;4041941;29;20056;-65
2022/03/11 08:09:04;;;;;;;18.42;13.98;;;16.70;51.90;;;;;;4046236;29;20057;-65
2022/03/11 08:11:26;;;;;;;19.10;14.30;;;16.70;51.30;;;;;;4057802;29;20055;-65
2022/03/11 08:13:50;;;;;;;15.50;12.93;;;16.80;51.10;;;;;;4045711;29;20068;-65
2022/03/11 08:16:12;;;;;;;19.67;14.43;;;16.70;50.70;;;;;;4046208;29;20056;-65
2022/03/11 08:18:35;;;;;;;26.05;15.32;;;16.70;50.30;;;;;;4046155;29;20100;-65
2022/03/11 08:20:57;;;;;;;19.95;15.25;;;16.70;51.20;;;;;;4046159;29;20379;-64
2022/03/11 08:23:20;;;;;;;18.20;13.82;;;16.70;50.30;;;;;;4046053;29;20521;-64
2022/03/11 08:25:42;;;;;;;19.30;12.95;;;16.80;49.70;;;;;;4045859;29;20049;-64
2022/03/11 08:28:10;;;;;;;22.80;15.35;;;16.80;50.10;;;;;;4046478;29;20131;-64
2022/03/11 08:30:34;;;;;;;23.38;13.68;;;16.80;50.30;;;;;;4046119;29;20124;-64
2022/03/11 08:32:56;;;;;;;20.52;14.43;;;16.90;50.00;;;;;;4045448;29;20579;-64
2022/03/11 08:35:30;;;;;;;19.58;14.00;;;16.80;50.70;;;;;;4045902;29;20120;-64
2022/03/11 08:37:53;;;;;;;17.48;12.27;;;16.80;50.00;;;;;;4045277;29;20057;-64
2022/03/11 08:40:16;;;;;;;19.05;14.38;;;16.80;49.70;;;;;;4045032;29;20154;-64
2022/03/11 08:42:40;;;;;;;21.30;14.45;;;16.80;50.30;;;;;;4045150;29;20104;-64
2022/03/11 08:45:03;;;;;;;21.73;13.93;;;16.70;50.20;;;;;;4045794;29;20064;-64
2022/03/11 08:47:27;;;;;;;21.48;15.20;;;16.70;50.30;;;;;;4045204;29;21008;-64
2022/03/11 08:49:49;;;;;;;21.23;13.90;;;16.80;50.40;;;;;;4045985;29;20487;-64
2022/03/11 08:52:12;;;;;;;19.30;14.15;;;16.90;49.80;;;;;;4045934;29;20094;-64
2022/03/11 08:54:34;;;;;;;22.60;14.05;;;17.00;48.90;;;;;;4045423;29;20103;-64
2022/03/11 08:56:56;;;;;;;31.20;15.15;;;17.00;49.50;;;;;;4033006;29;20157;-64
2022/03/11 08:59:18;;;;;;;20.52;13.27;;;17.00;49.20;;;;;;4045811;29;20147;-64
2022/03/11 09:01:40;;;;;;;18.48;13.52;;;17.00;48.10;;;;;;4045674;29;20119;-63
2022/03/11 09:04:05;;;;;;;19.90;15.10;;;17.00;48.40;;;;;;4045092;29;21068;-63
2022/03/11 09:06:27;;;;;;;20.63;14.35;;;16.90;48.50;;;;;;4055915;29;20063;-63
2022/03/11 09:08:49;;;;;;;20.15;14.13;;;16.90;48.70;;;;;;4060771;29;20052;-62
2022/03/11 09:11:12;;;;;;;21.67;13.98;;;16.80;48.70;;;;;;4060862;29;20487;-62
2022/03/11 09:13:34;;;;;;;21.30;14.30;;;16.80;48.90;;;;;;4060793;29;20487;-62
2022/03/11 09:15:56;;;;;;;24.17;15.90;;;16.70;49.00;;;;;;4046542;29;20044;-63
2022/03/11 09:18:19;;;;;;;20.73;13.43;;;16.70;48.70;;;;;;4059858;29;20108;-64
2022/03/11 09:20:43;;;;;;;20.20;14.73;;;16.70;48.70;;;;;;4059564;29;20052;-65
2022/03/11 09:23:06;;;;;;;25.48;16.05;;;16.60;48.70;;;;;;4059886;29;20067;-63
2022/03/11 09:25:29;;;;;;;19.10;13.85;;;16.60;48.70;;;;;;4060595;29;20131;-63
2022/03/11 09:27:54;;;;;;;19.75;14.27;;;16.60;48.90;;;;;;4060174;29;20048;-63
2022/03/11 09:30:17;;;;;;;23.75;14.35;;;16.50;48.90;;;;;;4060287;29;20158;-63
2022/03/11 09:32:39;;;;;;;20.38;14.02;;;16.50;48.70;;;;;;4060703;29;20491;-62
2022/03/11 09:35:01;;;;;;;19.35;12.50;;;16.50;48.70;;;;;;4059773;29;20076;-63
2022/03/11 09:37:25;;;;;;;23.27;14.13;;;16.50;48.70;;;;;;4060310;29;20076;-63
2022/03/11 09:39:48;;;;;;;21.55;14.25;;;16.40;47.20;;;;;;4045425;29;20063;-65
2022/03/11 09:42:10;;;;;;;22.20;14.10;;;16.40;48.30;;;;;;4060095;29;20056;-66
2022/03/11 09:44:33;;;;;;;27.13;14.80;;;16.40;48.10;;;;;;4060556;29;20052;-67
2022/03/11 09:46:56;;;;;;;24.83;15.45;;;16.30;47.80;;;;;;4060288;29;20056;-67
2022/03/11 09:49:18;;;;;;;21.05;14.27;;;16.30;47.90;;;;;;4060170;29;20147;-68
2022/03/11 09:51:41;;;;;;;24.02;15.05;;;16.30;47.90;;;;;;4063236;29;20058;-67
2022/03/11 09:54:05;;;;;;;20.55;14.65;;;16.30;48.20;;;;;;4064975;29;20052;-68
2022/03/11 09:56:28;;;;;;;20.75;12.20;;;16.30;48.70;;;;;;4065504;29;20665;-67
2022/03/11 09:58:51;;;;;;;21.23;13.50;;;16.20;48.10;;;;;;4065331;29;20044;-67
2022/03/11 10:01:42;;;;;;;29.90;14.48;;;16.20;48.00;;;;;;4064685;29;20071;-68
2022/03/11 10:04:06;;;;;;;17.50;13.65;;;16.10;46.90;;;;;;4064905;29;20417;-68
2022/03/11 10:06:38;;;;;;;15.93;12.75;;;16.10;47.20;;;;;;4064969;29;20441;-67
2022/03/11 10:09:01;;;;;;;21.02;13.85;;;16.10;46.60;;;;;;4064441;29;20183;-66
2022/03/11 10:11:26;;;;;;;20.92;11.85;;;16.10;47.60;;;;;;4065382;29;20062;-67
2022/03/11 10:13:48;;;;;;;21.05;14.75;;;16.00;46.80;;;;;;4065247;29;20059;-67
2022/03/11 10:16:18;;;;;;;19.13;13.50;;;16.00;47.00;;;;;;4065194;29;20044;-68
2022/03/11 10:18:41;;;;;;;21.15;13.00;;;16.00;46.60;;;;;;4056124;29;20472;-67
2022/03/11 10:21:09;;;;;;;20.63;14.30;;;16.00;47.00;;;;;;4065139;29;20418;-67
2022/03/11 10:23:47;;;;;;;25.70;14.85;;;16.00;46.90;;;;;;4065576;29;20060;-68
2022/03/11 10:26:10;;;;;;;30.08;14.93;;;15.90;47.60;;;;;;4064910;29;20063;-67
2022/03/11 10:28:33;;;;;;;19.02;12.85;;;15.90;46.80;;;;;;4065787;29;20067;-67
2022/03/11 10:30:56;;;;;;;22.65;14.50;;;15.90;46.80;;;;;;4050462;29;20076;-68
2022/03/11 10:33:21;;;;;;;19.85;14.13;;;15.90;47.10;;;;;;4065110;29;20086;-68
2022/03/11 10:35:47;;;;;;;19.13;12.35;;;15.90;47.00;;;;;;4065553;29;20048;-67
2022/03/11 10:38:12;;;;;;;18.83;13.90;;;15.90;48.00;;;;;;4065071;29;20071;-67
2022/03/11 10:40:35;;;;;;;22.02;13.25;;;15.90;47.50;;;;;;4065254;29;20059;-67
2022/03/11 10:43:17;;;;;;;18.17;12.95;;;15.90;47.20;;;;;;4065853;29;20403;-68
2022/03/11 10:45:53;;;;;;;24.00;13.35;;;15.90;47.50;;;;;;4065191;29;20115;-68
2022/03/11 10:48:16;;;;;;;19.77;13.65;;;15.90;47.50;;;;;;4063579;29;20620;-68
2022/03/11 10:50:39;;;;;;;19.70;13.80;;;15.90;47.90;;;;;;4063477;29;20431;-68
2022/03/11 10:53:06;;;;;;;23.08;14.35;;;15.90;48.90;;;;;;4065541;29;20479;-67
2022/03/11 10:55:30;;;;;;;17.10;12.75;;;16.00;48.50;;;;;;4063876;29;20424;-66
2022/03/11 10:57:54;;;;;;;16.42;11.85;;;16.10;48.20;;;;;;4065133;29;20402;-67
2022/03/11 11:00:19;;;;;;;23.45;12.65;;;16.20;46.10;;;;;;4064139;29;20135;-67
2022/03/11 11:02:44;;;;;;;26.17;13.77;;;16.30;45.20;;;;;;4049639;29;20100;-67
2022/03/11 11:05:07;;;;;;;20.98;13.88;;;16.30;47.90;;;;;;4062295;29;20124;-67
2022/03/11 11:07:30;;;;;;;16.88;12.27;;;16.30;47.50;;;;;;4062913;29;20593;-66
2022/03/11 11:09:52;;;;;;;22.05;13.32;;;16.40;47.10;;;;;;4062880;29;20060;-65
2022/03/11 11:12:17;;;;;;;158.23;20.77;;;16.40;47.10;;;;;;4061872;29;20052;-65
2022/03/11 11:14:39;;;;;;;17.67;11.63;;;16.40;46.70;;;;;;4062251;29;20051;-63
2022/03/11 11:17:04;;;;;;;17.38;12.27;;;16.50;47.00;;;;;;4061106;29;20345;-63
2022/03/11 11:19:30;;;;;;;19.73;14.52;;;16.50;47.10;;;;;;4061776;29;20044;-63
2022/03/11 11:21:53;;;;;;;16.25;12.90;;;16.50;47.30;;;;;;4062294;29;20048;-63
2022/03/11 11:24:17;;;;;;;21.45;12.65;;;16.50;45.90;;;;;;4062545;29;20067;-64
2022/03/11 11:26:42;;;;;;;21.77;11.80;;;16.50;45.70;;;;;;4062591;29;20167;-64
2022/03/11 11:29:04;;;;;;;16.05;11.95;;;16.40;46.30;;;;;;4062419;29;20064;-63
2022/03/11 11:31:28;;;;;;;18.02;12.73;;;16.40;47.00;;;;;;4062114;29;20411;-65
2022/03/11 11:33:50;;;;;;;19.45;12.20;;;16.40;46.20;;;;;;4048001;29;20048;-64
2022/03/11 11:36:32;;;;;;;16.13;12.77;;;16.40;46.80;;;;;;4062312;29;20052;-65
2022/03/11 11:39:02;;;;;;;18.98;13.25;;;16.30;46.70;;;;;;4061536;29;20112;-64
2022/03/11 11:41:26;;;;;;;18.70;12.05;;;16.30;45.80;;;;;;4060706;29;20486;-64
2022/03/11 11:43:53;;;;;;;16.40;11.65;;;16.30;45.50;;;;;;4062135;29;20070;-64
2022/03/11 11:46:19;;;;;;;16.67;10.57;;;16.30;44.80;;;;;;4062026;29;20063;-64
2022/03/11 11:49:03;;;;;;;21.02;13.60;;;16.20;45.60;;;;;;4061580;29;20134;-65
2022/03/11 11:52:01;;;;;;;24.17;12.95;;;16.20;44.50;;;;;;4061383;29;20055;-64
2022/03/11 11:54:41;;;;;;;16.35;12.32;;;16.20;44.40;;;;;;4061081;29;20052;-64
2022/03/11 11:57:03;;;;;;;18.02;10.93;;;16.20;44.60;;;;;;4062157;29;20064;-63
2022/03/11 11:59:32;;;;;;;16.10;12.00;;;16.10;45.00;;;;;;4061949;29;20177;-65
2022/03/11 12:01:55;;;;;;;18.27;12.38;;;16.10;45.30;;;;;;4062125;29;20063;-63
2022/03/11 12:04:27;;;;;;;15.77;11.30;;;16.10;45.50;;;;;;4061898;29;20054;-63
2022/03/11 12:06:56;;;;;;;14.10;11.98;;;16.10;45.10;;;;;;4046869;29;20801;-64
2022/03/11 12:09:51;;;;;;;18.58;11.10;;;16.10;45.80;;;;;;4061636;29;20071;-64